< Cyclone 199012 1990 Season Cyclone 199101 >
Cyclone 199013 (TINA)
General InformationTrack Information on Google MapsDetailed Wind InformationList of All Images || ResourceGoogle EarthGE AnimationAtom FeedGeoJSON
Detalied Best Track (Time Zone = UTC)
Year Month Day Hour Lat. Long. Pressure (hPa) Wind (kt) Class Image Chart
1990 1 24 01 -14.2 117.0 1002 19 2 Image --
1990 1 24 06 -14.2 116.6 1000 19 2 Image --
1990 1 24 09 -14.3 116.0 1000 19 2 Image --
1990 1 24 16 -14.5 115.1 1000 19 2 Image --
1990 1 25 00 -14.7 114.0 995 30 2 Image --
1990 1 25 01 -14.8 113.9 995 30 2 Image --
1990 1 25 06 -14.9 113.7 993 35 3 Image --
1990 1 25 09 -15.1 113.6 993 35 3 Image --
1990 1 25 12 -15.2 113.5 991 35 3 Image --
1990 1 25 16 -15.3 113.4 991 35 3 Image --
1990 1 25 18 -15.4 113.3 990 35 3 Image --
1990 1 26 00 -15.6 113.1 988 35 3 Image --
1990 1 26 01 -15.8 113.0 988 35 3 Image --
1990 1 26 06 -16.4 113.0 985 35 3 Image --
1990 1 26 12 -17.3 113.1 984 50 4 Image --
1990 1 26 14 -17.6 113.2 984 50 4 Image --
1990 1 26 16 -18.1 113.2 982 50 4 Image --
1990 1 26 18 -18.4 113.3 980 50 4 Image --
1990 1 26 19 -18.6 113.3 979 50 4 Image --
1990 1 27 00 -19.4 113.5 976 50 4 Image --
1990 1 27 01 -19.6 113.5 976 50 4 Image --
1990 1 27 06 -20.7 113.6 976 35 3 Image --
1990 1 27 09 -21.1 113.8 976 35 3 Image --
1990 1 27 10 -21.4 113.9 976 35 3 Image --
1990 1 27 12 -21.9 114.0 976 35 3 Image --
1990 1 27 16 -22.8 114.2 978 35 3 Image --
1990 1 27 18 -23.6 114.3 977 35 3 Image --
1990 1 28 00 -25.4 114.5 978 30 2 Image --
1990 1 28 01 -25.8 114.6 980 30 2 Image --
1990 1 28 06 -27.3 114.8 982 30 2 Image --
1990 1 28 10 -28.9 115.6 987 30 2 Image --
1990 1 28 12 -29.5 116.2 988 30 2 Image --
1990 1 28 18 -30.6 118.3 992 30 2 Image --
1990 1 29 00 -33.3 121.5 994 30 2 Image --
1990 1 29 06 -35.9 125.0 995 30 2 Image --
< Cyclone 199012 1990 Season Cyclone 199101 >

Help